sensor_id;sensor_type;location;lat;lon;timestamp;P1;durP1;ratioP1;P2;durP2;ratioP2
57627;SDS011;43451;49.060;10.616;2023-08-06T00:00:38;3.17;;;2.33;;
57627;SDS011;43451;49.060;10.616;2023-08-06T00:03:04;10.65;;;2.50;;
57627;SDS011;43451;49.060;10.616;2023-08-06T00:05:30;3.25;;;2.33;;
57627;SDS011;43451;49.060;10.616;2023-08-06T00:07:56;2.53;;;2.20;;
57627;SDS011;43451;49.060;10.616;2023-08-06T00:10:22;2.72;;;2.05;;
57627;SDS011;43451;49.060;10.616;2023-08-06T00:12:47;3.35;;;2.40;;
57627;SDS011;43451;49.060;10.616;2023-08-06T00:15:13;2.20;;;2.00;;
57627;SDS011;43451;49.060;10.616;2023-08-06T00:17:39;2.22;;;2.03;;
57627;SDS011;43451;49.060;10.616;2023-08-06T00:20:05;3.28;;;2.30;;
57627;SDS011;43451;49.060;10.616;2023-08-06T00:22:34;2.67;;;2.22;;
57627;SDS011;43451;49.060;10.616;2023-08-06T00:25:01;2.50;;;2.22;;
57627;SDS011;43451;49.060;10.616;2023-08-06T00:27:27;2.70;;;2.30;;
57627;SDS011;43451;49.060;10.616;2023-08-06T00:29:53;2.20;;;1.90;;
57627;SDS011;43451;49.060;10.616;2023-08-06T00:32:19;5.50;;;2.17;;
57627;SDS011;43451;49.060;10.616;2023-08-06T00:34:45;2.92;;;2.30;;
57627;SDS011;43451;49.060;10.616;2023-08-06T00:37:10;2.38;;;2.00;;
57627;SDS011;43451;49.060;10.616;2023-08-06T00:39:36;3.78;;;2.42;;
57627;SDS011;43451;49.060;10.616;2023-08-06T00:42:01;4.00;;;2.20;;
57627;SDS011;43451;49.060;10.616;2023-08-06T00:44:27;3.50;;;2.35;;
57627;SDS011;43451;49.060;10.616;2023-08-06T00:46:52;2.63;;;2.40;;
57627;SDS011;43451;49.060;10.616;2023-08-06T00:49:18;3.08;;;2.33;;
57627;SDS011;43451;49.060;10.616;2023-08-06T00:51:44;3.17;;;2.35;;
57627;SDS011;43451;49.060;10.616;2023-08-06T00:54:09;2.83;;;2.45;;
57627;SDS011;43451;49.060;10.616;2023-08-06T00:56:35;3.13;;;2.60;;
57627;SDS011;43451;49.060;10.616;2023-08-06T00:59:02;3.28;;;2.50;;
57627;SDS011;43451;49.060;10.616;2023-08-06T01:01:29;5.53;;;2.55;;
57627;SDS011;43451;49.060;10.616;2023-08-06T01:03:55;2.85;;;2.30;;
57627;SDS011;43451;49.060;10.616;2023-08-06T01:06:23;3.45;;;2.35;;
57627;SDS011;43451;49.060;10.616;2023-08-06T01:16:53;3.47;;;2.40;;
57627;SDS011;43451;49.060;10.616;2023-08-06T01:19:20;3.05;;;2.38;;
57627;SDS011;43451;49.060;10.616;2023-08-06T01:21:46;2.92;;;2.53;;
57627;SDS011;43451;49.060;10.616;2023-08-06T01:24:12;3.40;;;2.58;;
57627;SDS011;43451;49.060;10.616;2023-08-06T01:29:43;2.97;;;2.30;;
57627;SDS011;43451;49.060;10.616;2023-08-06T01:32:12;2.78;;;2.35;;
57627;SDS011;43451;49.060;10.616;2023-08-06T01:34:40;3.03;;;2.33;;
57627;SDS011;43451;49.060;10.616;2023-08-06T01:37:08;4.80;;;2.38;;
57627;SDS011;43451;49.060;10.616;2023-08-06T01:39:35;2.65;;;2.42;;
57627;SDS011;43451;49.060;10.616;2023-08-06T01:42:00;2.75;;;2.38;;
57627;SDS011;43451;49.060;10.616;2023-08-06T01:44:26;2.85;;;2.60;;
57627;SDS011;43451;49.060;10.616;2023-08-06T01:46:52;4.55;;;2.95;;
57627;SDS011;43451;49.060;10.616;2023-08-06T01:49:17;4.72;;;2.60;;
57627;SDS011;43451;49.060;10.616;2023-08-06T01:51:43;2.97;;;2.40;;
57627;SDS011;43451;49.060;10.616;2023-08-06T01:54:08;4.40;;;2.88;;
57627;SDS011;43451;49.060;10.616;2023-08-06T01:56:33;6.22;;;2.60;;
57627;SDS011;43451;49.060;10.616;2023-08-06T01:58:59;4.03;;;2.67;;
57627;SDS011;43451;49.060;10.616;2023-08-06T02:01:25;3.65;;;2.63;;
57627;SDS011;43451;49.060;10.616;2023-08-06T02:03:50;5.43;;;2.72;;
57627;SDS011;43451;49.060;10.616;2023-08-06T02:06:16;5.25;;;3.03;;
57627;SDS011;43451;49.060;10.616;2023-08-06T02:08:41;3.35;;;2.58;;
57627;SDS011;43451;49.060;10.616;2023-08-06T02:11:07;2.90;;;2.60;;
57627;SDS011;43451;49.060;10.616;2023-08-06T02:13:32;4.45;;;2.92;;
57627;SDS011;43451;49.060;10.616;2023-08-06T02:15:58;3.95;;;3.15;;
57627;SDS011;43451;49.060;10.616;2023-08-06T02:18:24;3.95;;;2.95;;
57627;SDS011;43451;49.060;10.616;2023-08-06T02:20:56;3.70;;;3.08;;
57627;SDS011;43451;49.060;10.616;2023-08-06T02:23:23;3.60;;;2.88;;
57627;SDS011;43451;49.060;10.616;2023-08-06T02:25:56;5.20;;;3.15;;
57627;SDS011;43451;49.060;10.616;2023-08-06T02:28:32;4.63;;;3.40;;
57627;SDS011;43451;49.060;10.616;2023-08-06T02:30:57;3.88;;;3.45;;
57627;SDS011;43451;49.060;10.616;2023-08-06T02:33:23;4.78;;;3.80;;
57627;SDS011;43451;49.060;10.616;2023-08-06T02:35:49;8.80;;;4.40;;
57627;SDS011;43451;49.060;10.616;2023-08-06T02:38:15;5.13;;;4.25;;
57627;SDS011;43451;49.060;10.616;2023-08-06T02:40:46;5.53;;;4.18;;
57627;SDS011;43451;49.060;10.616;2023-08-06T02:43:12;5.10;;;4.20;;
57627;SDS011;43451;49.060;10.616;2023-08-06T02:45:38;5.05;;;4.22;;
57627;SDS011;43451;49.060;10.616;2023-08-06T02:48:04;6.35;;;4.43;;
57627;SDS011;43451;49.060;10.616;2023-08-06T02:50:29;5.97;;;5.38;;
57627;SDS011;43451;49.060;10.616;2023-08-06T02:52:55;8.13;;;5.13;;
57627;SDS011;43451;49.060;10.616;2023-08-06T02:55:20;6.07;;;5.28;;
57627;SDS011;43451;49.060;10.616;2023-08-06T02:57:46;8.32;;;5.40;;
57627;SDS011;43451;49.060;10.616;2023-08-06T03:00:11;7.97;;;5.68;;
57627;SDS011;43451;49.060;10.616;2023-08-06T03:02:37;6.82;;;6.13;;
57627;SDS011;43451;49.060;10.616;2023-08-06T03:05:02;6.72;;;5.97;;
57627;SDS011;43451;49.060;10.616;2023-08-06T03:07:28;8.65;;;5.85;;
57627;SDS011;43451;49.060;10.616;2023-08-06T03:09:54;8.15;;;5.80;;
57627;SDS011;43451;49.060;10.616;2023-08-06T03:12:20;7.70;;;6.05;;
57627;SDS011;43451;49.060;10.616;2023-08-06T03:14:45;7.35;;;5.63;;
57627;SDS011;43451;49.060;10.616;2023-08-06T03:17:11;7.05;;;5.47;;
57627;SDS011;43451;49.060;10.616;2023-08-06T03:19:36;6.35;;;5.65;;
57627;SDS011;43451;49.060;10.616;2023-08-06T03:22:02;7.05;;;6.18;;
57627;SDS011;43451;49.060;10.616;2023-08-06T03:24:27;7.13;;;5.57;;
57627;SDS011;43451;49.060;10.616;2023-08-06T03:26:52;7.28;;;5.38;;
57627;SDS011;43451;49.060;10.616;2023-08-06T03:29:18;5.90;;;5.25;;
57627;SDS011;43451;49.060;10.616;2023-08-06T03:31:43;6.07;;;5.47;;
57627;SDS011;43451;49.060;10.616;2023-08-06T03:34:09;5.97;;;5.38;;
57627;SDS011;43451;49.060;10.616;2023-08-06T03:36:34;6.25;;;5.65;;
57627;SDS011;43451;49.060;10.616;2023-08-06T03:39:00;6.60;;;5.72;;
57627;SDS011;43451;49.060;10.616;2023-08-06T03:41:25;6.80;;;5.72;;
57627;SDS011;43451;49.060;10.616;2023-08-06T03:43:51;5.97;;;5.35;;
57627;SDS011;43451;49.060;10.616;2023-08-06T03:46:16;7.20;;;5.25;;
57627;SDS011;43451;49.060;10.616;2023-08-06T03:48:41;7.38;;;5.07;;
57627;SDS011;43451;49.060;10.616;2023-08-06T03:51:07;6.32;;;5.22;;
57627;SDS011;43451;49.060;10.616;2023-08-06T03:53:32;7.75;;;5.40;;
57627;SDS011;43451;49.060;10.616;2023-08-06T03:55:59;8.68;;;5.93;;
57627;SDS011;43451;49.060;10.616;2023-08-06T03:58:25;6.15;;;5.50;;
57627;SDS011;43451;49.060;10.616;2023-08-06T04:01:00;7.80;;;6.20;;
57627;SDS011;43451;49.060;10.616;2023-08-06T04:03:27;7.20;;;6.13;;
57627;SDS011;43451;49.060;10.616;2023-08-06T04:05:53;7.78;;;6.63;;
57627;SDS011;43451;49.060;10.616;2023-08-06T04:08:20;8.10;;;6.75;;
57627;SDS011;43451;49.060;10.616;2023-08-06T04:10:48;8.30;;;7.18;;
57627;SDS011;43451;49.060;10.616;2023-08-06T04:13:14;11.35;;;7.90;;
57627;SDS011;43451;49.060;10.616;2023-08-06T04:15:40;9.10;;;7.50;;
57627;SDS011;43451;49.060;10.616;2023-08-06T04:18:05;10.02;;;7.43;;
57627;SDS011;43451;49.060;10.616;2023-08-06T04:20:31;10.15;;;7.47;;
57627;SDS011;43451;49.060;10.616;2023-08-06T04:22:56;8.43;;;6.80;;
57627;SDS011;43451;49.060;10.616;2023-08-06T04:25:21;9.77;;;7.40;;
57627;SDS011;43451;49.060;10.616;2023-08-06T04:27:48;9.45;;;6.97;;
57627;SDS011;43451;49.060;10.616;2023-08-06T04:30:14;7.45;;;6.65;;
57627;SDS011;43451;49.060;10.616;2023-08-06T04:32:39;8.32;;;7.07;;
57627;SDS011;43451;49.060;10.616;2023-08-06T04:35:05;7.30;;;6.25;;
57627;SDS011;43451;49.060;10.616;2023-08-06T04:37:31;7.65;;;6.13;;
57627;SDS011;43451;49.060;10.616;2023-08-06T04:39:56;7.13;;;5.97;;
57627;SDS011;43451;49.060;10.616;2023-08-06T04:42:22;8.48;;;5.72;;
57627;SDS011;43451;49.060;10.616;2023-08-06T04:44:47;7.43;;;6.50;;
57627;SDS011;43451;49.060;10.616;2023-08-06T04:47:13;5.70;;;5.20;;
57627;SDS011;43451;49.060;10.616;2023-08-06T04:49:38;6.75;;;6.05;;
57627;SDS011;43451;49.060;10.616;2023-08-06T04:52:04;7.72;;;5.90;;
57627;SDS011;43451;49.060;10.616;2023-08-06T04:54:30;6.80;;;5.15;;
57627;SDS011;43451;49.060;10.616;2023-08-06T04:56:55;6.05;;;5.45;;
57627;SDS011;43451;49.060;10.616;2023-08-06T04:59:21;7.47;;;4.90;;
57627;SDS011;43451;49.060;10.616;2023-08-06T05:01:46;5.28;;;4.75;;
57627;SDS011;43451;49.060;10.616;2023-08-06T05:04:12;6.72;;;5.32;;
57627;SDS011;43451;49.060;10.616;2023-08-06T05:06:37;6.03;;;4.57;;
57627;SDS011;43451;49.060;10.616;2023-08-06T05:09:07;5.60;;;4.55;;
57627;SDS011;43451;49.060;10.616;2023-08-06T05:11:32;5.13;;;4.03;;
57627;SDS011;43451;49.060;10.616;2023-08-06T05:13:58;5.50;;;4.18;;
57627;SDS011;43451;49.060;10.616;2023-08-06T05:16:24;5.03;;;4.50;;
57627;SDS011;43451;49.060;10.616;2023-08-06T05:18:49;5.97;;;4.57;;
57627;SDS011;43451;49.060;10.616;2023-08-06T05:21:15;6.55;;;4.55;;
57627;SDS011;43451;49.060;10.616;2023-08-06T05:23:41;4.70;;;4.20;;
57627;SDS011;43451;49.060;10.616;2023-08-06T05:26:07;7.95;;;4.30;;
57627;SDS011;43451;49.060;10.616;2023-08-06T05:28:34;4.20;;;3.53;;
57627;SDS011;43451;49.060;10.616;2023-08-06T05:31:02;4.50;;;3.50;;
57627;SDS011;43451;49.060;10.616;2023-08-06T05:33:28;5.20;;;3.80;;
57627;SDS011;43451;49.060;10.616;2023-08-06T05:35:54;5.68;;;3.55;;
57627;SDS011;43451;49.060;10.616;2023-08-06T05:38:19;4.30;;;3.90;;
57627;SDS011;43451;49.060;10.616;2023-08-06T05:40:45;5.55;;;3.88;;
57627;SDS011;43451;49.060;10.616;2023-08-06T05:43:10;5.25;;;3.88;;
57627;SDS011;43451;49.060;10.616;2023-08-06T05:45:36;4.65;;;3.70;;
57627;SDS011;43451;49.060;10.616;2023-08-06T05:48:01;4.80;;;4.07;;
57627;SDS011;43451;49.060;10.616;2023-08-06T05:50:27;4.75;;;4.18;;
57627;SDS011;43451;49.060;10.616;2023-08-06T05:52:52;5.13;;;3.60;;
57627;SDS011;43451;49.060;10.616;2023-08-06T05:55:19;6.25;;;4.10;;
57627;SDS011;43451;49.060;10.616;2023-08-06T05:57:45;3.85;;;3.45;;
57627;SDS011;43451;49.060;10.616;2023-08-06T06:00:10;4.97;;;4.18;;
57627;SDS011;43451;49.060;10.616;2023-08-06T06:02:36;5.50;;;3.88;;
57627;SDS011;43451;49.060;10.616;2023-08-06T06:05:02;4.88;;;3.75;;
57627;SDS011;43451;49.060;10.616;2023-08-06T06:07:27;4.22;;;3.40;;
57627;SDS011;43451;49.060;10.616;2023-08-06T06:09:53;5.72;;;3.75;;
57627;SDS011;43451;49.060;10.616;2023-08-06T06:12:18;4.60;;;3.60;;
57627;SDS011;43451;49.060;10.616;2023-08-06T06:14:44;4.97;;;3.25;;
57627;SDS011;43451;49.060;10.616;2023-08-06T06:17:11;4.85;;;3.13;;
57627;SDS011;43451;49.060;10.616;2023-08-06T06:19:36;4.35;;;3.40;;
57627;SDS011;43451;49.060;10.616;2023-08-06T06:22:01;4.15;;;3.65;;
57627;SDS011;43451;49.060;10.616;2023-08-06T06:24:27;3.78;;;3.30;;
57627;SDS011;43451;49.060;10.616;2023-08-06T06:26:52;4.45;;;3.47;;
57627;SDS011;43451;49.060;10.616;2023-08-06T06:29:18;5.60;;;3.53;;
57627;SDS011;43451;49.060;10.616;2023-08-06T06:31:43;3.92;;;3.42;;
57627;SDS011;43451;49.060;10.616;2023-08-06T06:34:09;4.65;;;3.17;;
57627;SDS011;43451;49.060;10.616;2023-08-06T06:36:34;3.97;;;3.05;;
57627;SDS011;43451;49.060;10.616;2023-08-06T06:38:59;5.25;;;3.50;;
57627;SDS011;43451;49.060;10.616;2023-08-06T06:41:25;4.47;;;3.50;;
57627;SDS011;43451;49.060;10.616;2023-08-06T06:43:51;4.22;;;3.40;;
57627;SDS011;43451;49.060;10.616;2023-08-06T06:46:17;3.00;;;2.28;;
57627;SDS011;43451;49.060;10.616;2023-08-06T06:48:42;2.70;;;1.40;;
57627;SDS011;43451;49.060;10.616;2023-08-06T06:51:08;2.38;;;1.50;;
57627;SDS011;43451;49.060;10.616;2023-08-06T06:53:33;3.88;;;1.50;;
57627;SDS011;43451;49.060;10.616;2023-08-06T06:56:03;2.15;;;1.30;;
57627;SDS011;43451;49.060;10.616;2023-08-06T06:58:30;4.00;;;1.50;;
57627;SDS011;43451;49.060;10.616;2023-08-06T07:00:56;2.65;;;1.42;;
57627;SDS011;43451;49.060;10.616;2023-08-06T07:03:21;3.15;;;1.42;;
57627;SDS011;43451;49.060;10.616;2023-08-06T07:05:47;1.67;;;1.10;;
57627;SDS011;43451;49.060;10.616;2023-08-06T07:08:13;1.77;;;1.23;;
57627;SDS011;43451;49.060;10.616;2023-08-06T07:10:40;1.40;;;1.05;;
57627;SDS011;43451;49.060;10.616;2023-08-06T07:13:07;1.92;;;1.20;;
57627;SDS011;43451;49.060;10.616;2023-08-06T07:15:33;1.20;;;1.00;;
57627;SDS011;43451;49.060;10.616;2023-08-06T07:17:58;3.22;;;1.23;;
57627;SDS011;43451;49.060;10.616;2023-08-06T07:20:24;4.25;;;1.17;;
57627;SDS011;43451;49.060;10.616;2023-08-06T07:22:49;1.90;;;1.27;;
57627;SDS011;43451;49.060;10.616;2023-08-06T07:25:15;3.60;;;1.30;;
57627;SDS011;43451;49.060;10.616;2023-08-06T07:27:41;1.80;;;1.02;;
57627;SDS011;43451;49.060;10.616;2023-08-06T07:30:07;3.85;;;1.40;;
57627;SDS011;43451;49.060;10.616;2023-08-06T07:32:33;4.68;;;1.45;;
57627;SDS011;43451;49.060;10.616;2023-08-06T07:34:58;1.92;;;1.20;;
57627;SDS011;43451;49.060;10.616;2023-08-06T07:37:27;3.67;;;1.23;;
57627;SDS011;43451;49.060;10.616;2023-08-06T07:39:54;1.83;;;1.27;;
57627;SDS011;43451;49.060;10.616;2023-08-06T07:42:22;2.28;;;1.05;;
57627;SDS011;43451;49.060;10.616;2023-08-06T07:44:51;1.65;;;1.30;;
57627;SDS011;43451;49.060;10.616;2023-08-06T07:47:21;2.88;;;1.60;;
57627;SDS011;43451;49.060;10.616;2023-08-06T07:49:46;4.13;;;1.42;;
57627;SDS011;43451;49.060;10.616;2023-08-06T07:52:12;4.05;;;1.40;;
57627;SDS011;43451;49.060;10.616;2023-08-06T07:54:37;3.35;;;1.30;;
57627;SDS011;43451;49.060;10.616;2023-08-06T07:57:03;2.65;;;1.10;;
57627;SDS011;43451;49.060;10.616;2023-08-06T07:59:29;1.90;;;1.02;;
57627;SDS011;43451;49.060;10.616;2023-08-06T08:01:54;2.38;;;1.10;;
57627;SDS011;43451;49.060;10.616;2023-08-06T08:04:20;3.17;;;1.33;;
57627;SDS011;43451;49.060;10.616;2023-08-06T08:06:46;1.48;;;1.13;;
57627;SDS011;43451;49.060;10.616;2023-08-06T08:09:12;2.67;;;1.17;;
57627;SDS011;43451;49.060;10.616;2023-08-06T08:11:38;1.63;;;1.20;;
57627;SDS011;43451;49.060;10.616;2023-08-06T08:14:04;1.20;;;0.80;;
57627;SDS011;43451;49.060;10.616;2023-08-06T08:16:30;1.20;;;0.80;;
57627;SDS011;43451;49.060;10.616;2023-08-06T08:18:55;1.60;;;0.85;;
57627;SDS011;43451;49.060;10.616;2023-08-06T08:21:21;1.52;;;0.90;;
57627;SDS011;43451;49.060;10.616;2023-08-06T08:23:49;1.98;;;0.95;;
57627;SDS011;43451;49.060;10.616;2023-08-06T08:26:15;2.28;;;0.80;;
57627;SDS011;43451;49.060;10.616;2023-08-06T08:28:40;1.63;;;0.93;;
57627;SDS011;43451;49.060;10.616;2023-08-06T08:31:09;2.72;;;1.10;;
57627;SDS011;43451;49.060;10.616;2023-08-06T08:33:39;1.40;;;0.98;;
57627;SDS011;43451;49.060;10.616;2023-08-06T08:36:04;1.45;;;0.90;;
57627;SDS011;43451;49.060;10.616;2023-08-06T08:38:30;0.93;;;0.40;;
57627;SDS011;43451;49.060;10.616;2023-08-06T08:40:55;0.75;;;0.55;;
57627;SDS011;43451;49.060;10.616;2023-08-06T08:43:21;0.90;;;0.50;;
57627;SDS011;43451;49.060;10.616;2023-08-06T08:45:50;0.50;;;0.40;;
57627;SDS011;43451;49.060;10.616;2023-08-06T08:48:17;2.28;;;0.50;;
57627;SDS011;43451;49.060;10.616;2023-08-06T08:50:46;1.40;;;0.50;;
57627;SDS011;43451;49.060;10.616;2023-08-06T08:53:14;1.73;;;0.57;;
57627;SDS011;43451;49.060;10.616;2023-08-06T08:55:40;0.87;;;0.43;;
57627;SDS011;43451;49.060;10.616;2023-08-06T09:00:33;1.20;;;0.40;;
57627;SDS011;43451;49.060;10.616;2023-08-06T09:03:00;0.50;;;0.40;;
57627;SDS011;43451;49.060;10.616;2023-08-06T09:05:28;0.22;;;0.22;;
57627;SDS011;43451;49.060;10.616;2023-08-06T09:07:56;0.93;;;0.40;;
57627;SDS011;43451;49.060;10.616;2023-08-06T09:10:28;0.65;;;0.50;;
57627;SDS011;43451;49.060;10.616;2023-08-06T09:12:54;0.63;;;0.40;;
57627;SDS011;43451;49.060;10.616;2023-08-06T09:15:25;0.70;;;0.38;;
57627;SDS011;43451;49.060;10.616;2023-08-06T09:17:54;0.52;;;0.50;;
57627;SDS011;43451;49.060;10.616;2023-08-06T09:20:20;0.75;;;0.40;;
57627;SDS011;43451;49.060;10.616;2023-08-06T09:22:46;1.75;;;0.30;;
57627;SDS011;43451;49.060;10.616;2023-08-06T09:25:22;0.60;;;0.30;;
57627;SDS011;43451;49.060;10.616;2023-08-06T09:27:53;0.95;;;0.38;;
57627;SDS011;43451;49.060;10.616;2023-08-06T09:30:31;0.65;;;0.30;;
57627;SDS011;43451;49.060;10.616;2023-08-06T09:32:58;0.68;;;0.20;;
57627;SDS011;43451;49.060;10.616;2023-08-06T09:35:24;0.32;;;0.30;;
57627;SDS011;43451;49.060;10.616;2023-08-06T09:37:50;0.80;;;0.30;;
57627;SDS011;43451;49.060;10.616;2023-08-06T09:40:25;0.20;;;0.17;;
57627;SDS011;43451;49.060;10.616;2023-08-06T09:42:55;0.47;;;0.20;;
57627;SDS011;43451;49.060;10.616;2023-08-06T09:45:21;0.32;;;0.20;;
57627;SDS011;43451;49.060;10.616;2023-08-06T09:47:48;0.60;;;0.20;;
57627;SDS011;43451;49.060;10.616;2023-08-06T09:50:20;0.73;;;0.25;;
57627;SDS011;43451;49.060;10.616;2023-08-06T09:52:47;1.10;;;0.20;;
57627;SDS011;43451;49.060;10.616;2023-08-06T09:55:14;0.73;;;0.17;;
57627;SDS011;43451;49.060;10.616;2023-08-06T09:57:40;0.20;;;0.20;;
57627;SDS011;43451;49.060;10.616;2023-08-06T10:00:07;0.50;;;0.30;;
57627;SDS011;43451;49.060;10.616;2023-08-06T10:02:35;0.20;;;0.20;;
57627;SDS011;43451;49.060;10.616;2023-08-06T10:07:28;0.50;;;0.28;;
57627;SDS011;43451;49.060;10.616;2023-08-06T10:09:55;0.77;;;0.20;;
57627;SDS011;43451;49.060;10.616;2023-08-06T10:12:21;0.50;;;0.30;;
57627;SDS011;43451;49.060;10.616;2023-08-06T10:14:49;0.50;;;0.25;;
57627;SDS011;43451;49.060;10.616;2023-08-06T10:17:19;0.75;;;0.30;;
57627;SDS011;43451;49.060;10.616;2023-08-06T10:19:46;1.02;;;0.20;;
57627;SDS011;43451;49.060;10.616;2023-08-06T10:22:16;0.30;;;0.30;;
57627;SDS011;43451;49.060;10.616;2023-08-06T10:24:53;0.73;;;0.25;;
57627;SDS011;43451;49.060;10.616;2023-08-06T10:27:33;0.75;;;0.40;;
57627;SDS011;43451;49.060;10.616;2023-08-06T10:32:48;1.00;;;0.20;;
57627;SDS011;43451;49.060;10.616;2023-08-06T10:40:35;0.95;;;0.30;;
57627;SDS011;43451;49.060;10.616;2023-08-06T10:43:02;0.30;;;0.30;;
57627;SDS011;43451;49.060;10.616;2023-08-06T10:45:29;0.57;;;0.30;;
57627;SDS011;43451;49.060;10.616;2023-08-06T10:47:56;0.13;;;0.13;;
57627;SDS011;43451;49.060;10.616;2023-08-06T10:50:23;0.32;;;0.20;;
57627;SDS011;43451;49.060;10.616;2023-08-06T10:52:49;0.70;;;0.28;;
57627;SDS011;43451;49.060;10.616;2023-08-06T10:55:33;0.47;;;0.20;;
57627;SDS011;43451;49.060;10.616;2023-08-06T10:57:59;0.50;;;0.20;;
57627;SDS011;43451;49.060;10.616;2023-08-06T11:00:25;0.77;;;0.30;;
57627;SDS011;43451;49.060;10.616;2023-08-06T11:02:51;0.63;;;0.20;;
57627;SDS011;43451;49.060;10.616;2023-08-06T11:05:18;0.68;;;0.40;;
57627;SDS011;43451;49.060;10.616;2023-08-06T11:07:43;0.20;;;0.20;;
57627;SDS011;43451;49.060;10.616;2023-08-06T11:10:10;0.13;;;0.10;;
57627;SDS011;43451;49.060;10.616;2023-08-06T11:15:02;0.10;;;0.10;;
57627;SDS011;43451;49.060;10.616;2023-08-06T11:17:29;0.10;;;0.10;;
57627;SDS011;43451;49.060;10.616;2023-08-06T11:20:01;0.52;;;0.10;;
57627;SDS011;43451;49.060;10.616;2023-08-06T11:22:28;0.17;;;0.15;;
57627;SDS011;43451;49.060;10.616;2023-08-06T11:24:53;0.20;;;0.10;;
57627;SDS011;43451;49.060;10.616;2023-08-06T11:27:20;0.22;;;0.20;;
57627;SDS011;43451;49.060;10.616;2023-08-06T11:29:45;0.17;;;0.17;;
57627;SDS011;43451;49.060;10.616;2023-08-06T11:32:11;0.20;;;0.20;;
57627;SDS011;43451;49.060;10.616;2023-08-06T11:34:37;0.40;;;0.20;;
57627;SDS011;43451;49.060;10.616;2023-08-06T11:37:04;0.20;;;0.20;;
57627;SDS011;43451;49.060;10.616;2023-08-06T11:39:37;0.25;;;0.20;;
57627;SDS011;43451;49.060;10.616;2023-08-06T11:42:03;0.40;;;0.20;;
57627;SDS011;43451;49.060;10.616;2023-08-06T11:44:31;0.20;;;0.20;;
57627;SDS011;43451;49.060;10.616;2023-08-06T11:47:01;0.10;;;0.10;;
57627;SDS011;43451;49.060;10.616;2023-08-06T11:49:38;1.55;;;0.20;;
57627;SDS011;43451;49.060;10.616;2023-08-06T11:52:08;0.88;;;0.17;;
57627;SDS011;43451;49.060;10.616;2023-08-06T11:55:02;0.20;;;0.20;;
57627;SDS011;43451;49.060;10.616;2023-08-06T11:57:31;0.95;;;0.10;;
57627;SDS011;43451;49.060;10.616;2023-08-06T12:00:13;0.15;;;0.15;;
57627;SDS011;43451;49.060;10.616;2023-08-06T12:02:40;1.15;;;0.20;;
57627;SDS011;43451;49.060;10.616;2023-08-06T12:05:17;0.98;;;0.20;;
57627;SDS011;43451;49.060;10.616;2023-08-06T12:07:49;0.20;;;0.20;;
57627;SDS011;43451;49.060;10.616;2023-08-06T12:10:16;0.30;;;0.20;;
57627;SDS011;43451;49.060;10.616;2023-08-06T12:12:42;0.25;;;0.20;;
57627;SDS011;43451;49.060;10.616;2023-08-06T12:15:08;0.10;;;0.10;;
57627;SDS011;43451;49.060;10.616;2023-08-06T12:17:34;0.20;;;0.20;;
57627;SDS011;43451;49.060;10.616;2023-08-06T12:20:01;0.63;;;0.20;;
57627;SDS011;43451;49.060;10.616;2023-08-06T12:22:29;0.20;;;0.20;;
57627;SDS011;43451;49.060;10.616;2023-08-06T12:25:01;1.95;;;0.20;;
57627;SDS011;43451;49.060;10.616;2023-08-06T12:27:29;1.15;;;0.20;;
57627;SDS011;43451;49.060;10.616;2023-08-06T12:29:54;0.95;;;0.20;;
57627;SDS011;43451;49.060;10.616;2023-08-06T12:32:20;0.30;;;0.30;;
57627;SDS011;43451;49.060;10.616;2023-08-06T12:34:47;1.08;;;0.30;;
57627;SDS011;43451;49.060;10.616;2023-08-06T12:37:15;3.13;;;0.40;;
57627;SDS011;43451;49.060;10.616;2023-08-06T12:39:42;1.33;;;0.30;;
57627;SDS011;43451;49.060;10.616;2023-08-06T12:42:07;0.40;;;0.30;;
57627;SDS011;43451;49.060;10.616;2023-08-06T12:44:33;0.20;;;0.20;;
57627;SDS011;43451;49.060;10.616;2023-08-06T12:46:59;0.30;;;0.30;;
57627;SDS011;43451;49.060;10.616;2023-08-06T12:49:25;0.20;;;0.20;;
57627;SDS011;43451;49.060;10.616;2023-08-06T12:51:52;0.20;;;0.20;;
57627;SDS011;43451;49.060;10.616;2023-08-06T12:54:18;0.40;;;0.30;;
57627;SDS011;43451;49.060;10.616;2023-08-06T12:56:45;1.60;;;0.28;;
57627;SDS011;43451;49.060;10.616;2023-08-06T12:59:11;0.77;;;0.30;;
57627;SDS011;43451;49.060;10.616;2023-08-06T13:01:37;0.20;;;0.20;;
57627;SDS011;43451;49.060;10.616;2023-08-06T13:04:03;0.20;;;0.20;;
57627;SDS011;43451;49.060;10.616;2023-08-06T13:06:29;0.40;;;0.30;;
57627;SDS011;43451;49.060;10.616;2023-08-06T13:08:56;1.00;;;0.30;;
57627;SDS011;43451;49.060;10.616;2023-08-06T13:11:22;0.20;;;0.20;;
57627;SDS011;43451;49.060;10.616;2023-08-06T13:13:48;0.30;;;0.30;;
57627;SDS011;43451;49.060;10.616;2023-08-06T13:16:13;0.30;;;0.30;;
57627;SDS011;43451;49.060;10.616;2023-08-06T13:18:39;0.30;;;0.20;;
57627;SDS011;43451;49.060;10.616;2023-08-06T13:21:04;0.50;;;0.40;;
57627;SDS011;43451;49.060;10.616;2023-08-06T13:23:30;0.30;;;0.30;;
57627;SDS011;43451;49.060;10.616;2023-08-06T13:25:55;0.20;;;0.20;;
57627;SDS011;43451;49.060;10.616;2023-08-06T13:28:21;0.30;;;0.30;;
57627;SDS011;43451;49.060;10.616;2023-08-06T13:30:46;0.30;;;0.30;;
57627;SDS011;43451;49.060;10.616;2023-08-06T13:33:12;0.70;;;0.38;;
57627;SDS011;43451;49.060;10.616;2023-08-06T13:35:38;0.30;;;0.30;;
57627;SDS011;43451;49.060;10.616;2023-08-06T13:38:04;0.73;;;0.40;;
57627;SDS011;43451;49.060;10.616;2023-08-06T13:40:31;0.40;;;0.40;;
57627;SDS011;43451;49.060;10.616;2023-08-06T13:42:58;1.02;;;0.43;;
57627;SDS011;43451;49.060;10.616;2023-08-06T13:45:23;0.55;;;0.40;;
57627;SDS011;43451;49.060;10.616;2023-08-06T13:47:49;1.30;;;0.40;;
57627;SDS011;43451;49.060;10.616;2023-08-06T13:50:15;0.50;;;0.50;;
57627;SDS011;43451;49.060;10.616;2023-08-06T13:52:40;1.10;;;0.52;;
57627;SDS011;43451;49.060;10.616;2023-08-06T13:55:06;0.70;;;0.50;;
57627;SDS011;43451;49.060;10.616;2023-08-06T13:57:33;0.57;;;0.50;;
57627;SDS011;43451;49.060;10.616;2023-08-06T13:59:59;0.70;;;0.60;;
57627;SDS011;43451;49.060;10.616;2023-08-06T14:02:25;0.55;;;0.50;;
57627;SDS011;43451;49.060;10.616;2023-08-06T14:04:52;0.60;;;0.40;;
57627;SDS011;43451;49.060;10.616;2023-08-06T14:07:17;0.95;;;0.73;;
57627;SDS011;43451;49.060;10.616;2023-08-06T14:09:43;0.60;;;0.60;;
57627;SDS011;43451;49.060;10.616;2023-08-06T14:12:09;1.25;;;0.70;;
57627;SDS011;43451;49.060;10.616;2023-08-06T14:14:35;1.00;;;0.75;;
57627;SDS011;43451;49.060;10.616;2023-08-06T14:17:00;1.45;;;0.98;;
57627;SDS011;43451;49.060;10.616;2023-08-06T14:19:26;1.30;;;0.80;;
57627;SDS011;43451;49.060;10.616;2023-08-06T14:21:52;1.20;;;0.90;;
57627;SDS011;43451;49.060;10.616;2023-08-06T14:24:18;1.67;;;0.98;;
57627;SDS011;43451;49.060;10.616;2023-08-06T14:26:43;1.73;;;1.00;;
57627;SDS011;43451;49.060;10.616;2023-08-06T14:29:09;1.25;;;0.95;;
57627;SDS011;43451;49.060;10.616;2023-08-06T14:31:35;2.55;;;1.08;;
57627;SDS011;43451;49.060;10.616;2023-08-06T14:34:00;1.42;;;0.98;;
57627;SDS011;43451;49.060;10.616;2023-08-06T14:36:26;1.25;;;1.00;;
57627;SDS011;43451;49.060;10.616;2023-08-06T14:41:44;1.10;;;0.95;;
57627;SDS011;43451;49.060;10.616;2023-08-06T14:44:10;1.02;;;0.90;;
57627;SDS011;43451;49.060;10.616;2023-08-06T14:46:38;1.80;;;1.10;;
57627;SDS011;43451;49.060;10.616;2023-08-06T14:49:04;0.90;;;0.80;;
57627;SDS011;43451;49.060;10.616;2023-08-06T14:54:52;1.05;;;0.82;;
57627;SDS011;43451;49.060;10.616;2023-08-06T14:59:55;0.82;;;0.70;;
57627;SDS011;43451;49.060;10.616;2023-08-06T15:05:11;1.13;;;0.75;;
57627;SDS011;43451;49.060;10.616;2023-08-06T15:10:08;2.17;;;0.90;;